Time;durP1;ratioP1;P1;durP2;ratioP2;P2;SDS_P1;SDS_P2;PMS_P1;PMS_P2;Temp;Humidity;BMP_temperature;BMP_pressure;BME280_temperature;BME280_humidity;BME280_pressure;Samples;Min_cycle;Max_cycle;Signal;HPM_P1;HPM_P2
2023/10/20 00:00:56;;;;;;;57.42;36.33;;;9.20;99.90;;;;;;5113527;27;20334;-82
2023/10/20 00:03:22;;;;;;;61.35;37.25;;;9.30;99.90;;;;;;5109851;27;20038;-83
2023/10/20 00:05:48;;;;;;;60.55;37.03;;;9.20;99.90;;;;;;5117038;27;20031;-83
2023/10/20 00:08:14;;;;;;;123.20;36.60;;;9.20;99.90;;;;;;5104081;27;20031;-83
2023/10/20 00:10:40;;;;;;;73.03;36.78;;;9.20;99.90;;;;;;5110388;27;20073;-83
2023/10/20 00:13:06;;;;;;;72.25;37.45;;;9.20;99.90;;;;;;5116995;27;20023;-82
2023/10/20 00:15:33;;;;;;;65.40;37.50;;;9.20;99.90;;;;;;5109039;27;20031;-82
2023/10/20 00:17:58;;;;;;;66.40;38.03;;;9.10;99.90;;;;;;5106812;27;20023;-82
2023/10/20 00:20:24;;;;;;;64.47;37.35;;;9.20;99.90;;;;;;5110642;27;20096;-82
2023/10/20 00:22:50;;;;;;;62.45;36.72;;;9.10;99.90;;;;;;5098204;27;20107;-82
2023/10/20 00:25:15;;;;;;;89.70;40.13;;;9.10;99.90;;;;;;5107093;27;20139;-83
2023/10/20 00:27:41;;;;;;;64.57;37.45;;;9.10;99.90;;;;;;5097813;28;20142;-82
2023/10/20 00:30:07;;;;;;;67.50;38.38;;;9.10;99.90;;;;;;5094860;28;21080;-82
2023/10/20 00:32:34;;;;;;;85.95;37.95;;;9.10;99.90;;;;;;5105199;28;20018;-82
2023/10/20 00:35:03;;;;;;;61.28;34.85;;;9.10;99.90;;;;;;5114234;27;20118;-82
2023/10/20 00:37:31;;;;;;;59.58;35.53;;;9.10;99.90;;;;;;5092712;28;20031;-83
2023/10/20 00:39:57;;;;;;;62.20;33.70;;;9.10;99.90;;;;;;5109086;28;20028;-82
2023/10/20 00:42:22;;;;;;;50.88;30.83;;;9.10;99.90;;;;;;5113695;27;20479;-82
2023/10/20 00:44:48;;;;;;;62.20;32.60;;;9.10;99.90;;;;;;5110455;27;20020;-82
2023/10/20 00:47:15;;;;;;;56.13;33.92;;;9.10;99.90;;;;;;5105392;27;20027;-82
2023/10/20 00:49:40;;;;;;;150.07;36.95;;;9.00;99.90;;;;;;5110373;27;20044;-82
2023/10/20 00:52:09;;;;;;;77.28;39.70;;;9.00;99.90;;;;;;5107669;27;20015;-83
2023/10/20 00:54:37;;;;;;;51.80;32.53;;;9.00;99.90;;;;;;5104015;27;20027;-82
2023/10/20 00:57:02;;;;;;;57.38;33.72;;;9.00;99.90;;;;;;5120505;27;20035;-82
2023/10/20 00:59:28;;;;;;;51.20;31.20;;;9.00;99.90;;;;;;5126561;27;20023;-82
2023/10/20 01:01:54;;;;;;;63.95;34.80;;;9.00;99.90;;;;;;5111829;27;20055;-82
2023/10/20 01:04:20;;;;;;;65.22;34.45;;;9.00;99.90;;;;;;5113793;27;20033;-82
2023/10/20 01:06:48;;;;;;;75.22;36.70;;;9.00;99.90;;;;;;5099422;27;20120;-81
2023/10/20 01:09:25;;;;;;;55.05;33.40;;;9.00;99.90;;;;;;5117137;27;20566;-82
2023/10/20 01:11:52;;;;;;;49.63;30.17;;;9.00;99.90;;;;;;5111319;27;20292;-82
2023/10/20 01:14:18;;;;;;;51.92;31.50;;;8.90;99.90;;;;;;5114454;27;20032;-82
2023/10/20 01:16:43;;;;;;;62.55;34.20;;;9.00;99.90;;;;;;5120271;27;20488;-82
2023/10/20 01:19:09;;;;;;;61.63;34.42;;;9.00;99.90;;;;;;5123080;27;20035;-83
2023/10/20 01:21:35;;;;;;;52.53;32.17;;;9.00;99.90;;;;;;5115871;27;20024;-82
2023/10/20 01:24:02;;;;;;;54.33;32.83;;;9.00;99.90;;;;;;5102905;27;20032;-82
2023/10/20 01:26:29;;;;;;;55.45;34.75;;;9.00;99.90;;;;;;5122988;27;20042;-82
2023/10/20 01:28:55;;;;;;;51.42;32.65;;;9.00;99.90;;;;;;5107990;27;20059;-82
2023/10/20 01:31:23;;;;;;;55.00;31.45;;;9.00;99.90;;;;;;5111155;27;20020;-82
2023/10/20 01:33:49;;;;;;;56.67;33.25;;;9.00;99.90;;;;;;5098089;27;20043;-82
2023/10/20 01:36:15;;;;;;;56.40;35.05;;;8.90;99.90;;;;;;5123472;27;20452;-82
2023/10/20 01:38:41;;;;;;;88.20;32.35;;;8.90;99.90;;;;;;5115219;27;20336;-82
2023/10/20 01:41:07;;;;;;;55.47;30.00;;;9.00;99.90;;;;;;5117278;27;20019;-82
2023/10/20 01:43:33;;;;;;;72.00;33.10;;;8.90;99.90;;;;;;5118521;27;20039;-82
2023/10/20 01:46:01;;;;;;;151.60;32.95;;;8.90;99.90;;;;;;5110543;27;20027;-83
2023/10/20 01:48:26;;;;;;;53.90;30.77;;;8.90;99.90;;;;;;5102811;27;20685;-82
2023/10/20 01:51:05;;;;;;;84.60;32.85;;;8.90;99.90;;;;;;5110048;27;20023;-81
2023/10/20 01:53:31;;;;;;;44.30;28.33;;;8.90;99.90;;;;;;5111745;27;20930;-82
2023/10/20 01:55:56;;;;;;;47.40;28.95;;;8.90;99.90;;;;;;5099398;27;20048;-83
2023/10/20 01:58:22;;;;;;;42.50;26.80;;;8.90;99.90;;;;;;5114089;27;20103;-82
2023/10/20 02:00:49;;;;;;;88.00;33.38;;;8.80;99.90;;;;;;5116629;27;20028;-82
2023/10/20 02:03:15;;;;;;;53.88;29.75;;;8.80;99.90;;;;;;5101408;27;20036;-83
2023/10/20 02:05:40;;;;;;;87.15;33.90;;;8.80;99.90;;;;;;5099506;28;20330;-82
2023/10/20 02:08:10;;;;;;;81.70;32.33;;;8.80;99.90;;;;;;5115123;27;20121;-82
2023/10/20 02:10:36;;;;;;;57.47;32.90;;;8.80;99.90;;;;;;5105593;27;20050;-82
2023/10/20 02:13:03;;;;;;;54.65;31.23;;;8.80;99.90;;;;;;5114749;27;20028;-81
2023/10/20 02:15:33;;;;;;;54.95;31.80;;;8.80;99.90;;;;;;5109422;27;20020;-81
2023/10/20 02:17:58;;;;;;;59.20;32.88;;;8.80;99.90;;;;;;5094483;27;20096;-83
2023/10/20 02:20:25;;;;;;;53.95;32.10;;;8.80;99.90;;;;;;5100590;27;20045;-82
2023/10/20 02:22:55;;;;;;;53.60;30.90;;;8.80;99.90;;;;;;5108419;27;20035;-81
2023/10/20 02:25:21;;;;;;;54.20;31.73;;;8.80;99.90;;;;;;5111243;27;20588;-82
2023/10/20 02:27:47;;;;;;;52.10;31.48;;;8.80;99.90;;;;;;5111946;27;20052;-82
2023/10/20 02:30:14;;;;;;;60.83;35.35;;;8.80;99.90;;;;;;5123174;27;20027;-81
2023/10/20 02:32:41;;;;;;;59.85;34.88;;;8.80;99.90;;;;;;5116561;27;20042;-82
2023/10/20 02:35:08;;;;;;;65.18;33.15;;;8.80;99.90;;;;;;5110048;27;20035;-82
2023/10/20 02:37:33;;;;;;;68.93;35.50;;;8.80;99.90;;;;;;5114023;27;20024;-82
2023/10/20 02:39:59;;;;;;;61.95;31.25;;;8.80;99.90;;;;;;5110589;27;20483;-81
2023/10/20 02:42:25;;;;;;;53.15;29.95;;;8.80;99.90;;;;;;5117513;27;20019;-81
2023/10/20 02:44:50;;;;;;;62.83;33.13;;;8.70;99.90;;;;;;5115161;27;20015;-81
2023/10/20 02:47:16;;;;;;;66.50;33.72;;;8.80;99.90;;;;;;5114205;27;20027;-82
2023/10/20 02:49:42;;;;;;;59.45;32.67;;;8.80;99.90;;;;;;5115805;27;20035;-81
2023/10/20 02:52:07;;;;;;;69.25;34.78;;;8.80;99.90;;;;;;5108694;27;20185;-81
2023/10/20 02:54:37;;;;;;;50.53;28.80;;;8.70;99.90;;;;;;5115135;27;20016;-81
2023/10/20 02:57:07;;;;;;;153.98;30.75;;;8.70;99.90;;;;;;5110883;27;20081;-81
2023/10/20 02:59:32;;;;;;;61.35;33.97;;;8.70;99.90;;;;;;5110662;27;20116;-81
2023/10/20 03:01:58;;;;;;;80.93;30.63;;;8.70;99.90;;;;;;5113905;27;20111;-82
2023/10/20 03:04:23;;;;;;;100.43;32.90;;;8.70;99.90;;;;;;5111717;27;20023;-82
2023/10/20 03:06:49;;;;;;;59.78;32.95;;;8.70;99.90;;;;;;5118206;27;20027;-81
2023/10/20 03:09:15;;;;;;;123.72;33.97;;;8.70;99.90;;;;;;5109593;27;20038;-81
2023/10/20 03:11:40;;;;;;;54.70;30.42;;;8.70;99.90;;;;;;5114598;27;20306;-81
2023/10/20 03:14:06;;;;;;;77.68;34.33;;;8.70;99.90;;;;;;5117692;27;20011;-82
2023/10/20 03:16:34;;;;;;;60.47;31.30;;;8.70;99.90;;;;;;5113089;27;20046;-81
2023/10/20 03:19:01;;;;;;;73.25;33.85;;;8.60;99.90;;;;;;5111228;27;20393;-81
2023/10/20 03:21:26;;;;;;;70.78;35.13;;;8.70;99.90;;;;;;5092534;27;20494;-81
2023/10/20 03:23:52;;;;;;;111.65;34.45;;;8.70;99.90;;;;;;5114428;27;20114;-81
2023/10/20 03:26:17;;;;;;;74.05;34.53;;;8.60;99.90;;;;;;5105461;27;20089;-81
2023/10/20 03:28:43;;;;;;;87.75;33.72;;;8.60;99.90;;;;;;5106438;27;20414;-81
2023/10/20 03:31:09;;;;;;;59.05;33.17;;;8.60;99.90;;;;;;5113299;27;20026;-81
2023/10/20 03:33:34;;;;;;;65.90;32.10;;;8.70;99.90;;;;;;5106262;27;20039;-81
2023/10/20 03:36:03;;;;;;;63.88;33.05;;;8.60;99.90;;;;;;5111940;27;20051;-80
2023/10/20 03:38:30;;;;;;;68.00;33.30;;;8.60;99.90;;;;;;5115501;27;20022;-81
2023/10/20 03:41:06;;;;;;;61.22;34.20;;;8.60;99.90;;;;;;5105453;27;20036;-81
2023/10/20 03:43:34;;;;;;;133.45;35.17;;;8.60;99.90;;;;;;5112317;27;20106;-82
2023/10/20 03:46:00;;;;;;;90.03;35.35;;;8.60;99.90;;;;;;5105364;27;20049;-82
2023/10/20 03:48:29;;;;;;;66.22;35.22;;;8.60;99.90;;;;;;5109437;27;20035;-82
2023/10/20 03:50:58;;;;;;;76.57;34.38;;;8.60;99.90;;;;;;5106314;27;20034;-83
2023/10/20 03:53:27;;;;;;;67.95;34.72;;;8.60;99.90;;;;;;5105316;27;20038;-84
2023/10/20 03:56:07;;;;;;;85.82;35.58;;;8.60;99.90;;;;;;5105157;27;20625;-83
2023/10/20 03:58:35;;;;;;;130.10;36.45;;;8.60;99.90;;;;;;5107148;27;20015;-83
2023/10/20 04:01:09;;;;;;;67.78;35.80;;;8.60;99.90;;;;;;5099493;28;20024;-83
2023/10/20 04:03:35;;;;;;;63.42;32.25;;;8.60;99.90;;;;;;5109899;27;20061;-84
2023/10/20 04:06:07;;;;;;;79.03;36.40;;;8.60;99.90;;;;;;5104860;27;20059;-83
2023/10/20 04:08:36;;;;;;;72.18;35.80;;;8.60;99.90;;;;;;5109720;27;20122;-83
2023/10/20 04:11:01;;;;;;;65.40;33.85;;;8.50;99.90;;;;;;5107909;27;20487;-83
2023/10/20 04:13:32;;;;;;;66.15;33.40;;;8.60;99.90;;;;;;5107977;27;20051;-84
2023/10/20 04:16:12;;;;;;;66.28;31.00;;;8.50;99.90;;;;;;5111927;27;20019;-82
2023/10/20 04:18:41;;;;;;;72.55;32.08;;;8.50;99.90;;;;;;5112203;27;20019;-84
2023/10/20 04:21:13;;;;;;;62.55;31.77;;;8.60;99.90;;;;;;5106634;27;20080;-83
2023/10/20 04:23:40;;;;;;;57.60;30.23;;;8.50;99.90;;;;;;5108339;27;20088;-84
2023/10/20 04:26:16;;;;;;;63.67;29.90;;;8.60;99.90;;;;;;5107334;27;20019;-83
2023/10/20 04:28:45;;;;;;;71.10;29.95;;;8.50;99.90;;;;;;5100729;27;20052;-83
2023/10/20 04:53:23;;;;;;;46.38;22.70;;;8.50;99.90;;;;;;5099343;28;20053;-82
2023/10/20 05:01:28;;;;;;;38.80;18.67;;;8.50;99.90;;;;;;5098846;28;20043;-82
2023/10/20 05:03:57;;;;;;;36.13;17.50;;;8.50;99.90;;;;;;5104382;28;20241;-83
2023/10/20 05:06:26;;;;;;;32.22;16.05;;;8.50;99.90;;;;;;5108966;28;20479;-82
2023/10/20 05:08:52;;;;;;;34.90;17.98;;;8.50;99.90;;;;;;5097157;28;20067;-82
2023/10/20 05:11:18;;;;;;;25.83;13.98;;;8.50;99.90;;;;;;5099375;28;20414;-82
2023/10/20 05:13:44;;;;;;;26.98;14.18;;;8.50;99.90;;;;;;5109209;28;20146;-82
2023/10/20 05:16:10;;;;;;;26.92;14.18;;;8.50;99.90;;;;;;5107498;28;20028;-82
2023/10/20 05:18:38;;;;;;;28.85;15.32;;;8.50;99.90;;;;;;5097822;28;20022;-82
2023/10/20 05:21:08;;;;;;;27.40;15.07;;;8.50;99.90;;;;;;5103449;28;20375;-83
2023/10/20 05:23:34;;;;;;;24.98;13.48;;;8.40;99.90;;;;;;5099667;28;20021;-83
2023/10/20 05:26:00;;;;;;;23.23;14.32;;;8.40;99.90;;;;;;5100127;28;20019;-82
2023/10/20 05:28:26;;;;;;;24.92;13.98;;;8.40;99.90;;;;;;5113565;27;20042;-85
2023/10/20 05:30:53;;;;;;;27.55;16.23;;;8.40;99.90;;;;;;5108439;27;20065;-82
2023/10/20 05:33:19;;;;;;;43.28;23.85;;;8.40;99.90;;;;;;5117608;27;20052;-81
2023/10/20 05:35:44;;;;;;;39.50;22.98;;;8.40;99.90;;;;;;5115317;27;20508;-82
2023/10/20 05:38:10;;;;;;;38.47;21.25;;;8.40;99.90;;;;;;5114341;27;20455;-84
2023/10/20 05:40:36;;;;;;;27.17;15.85;;;8.30;99.90;;;;;;5096832;27;20019;-83
2023/10/20 05:43:05;;;;;;;26.52;16.30;;;8.30;99.90;;;;;;5107564;27;20033;-82
2023/10/20 05:45:40;;;;;;;26.02;14.43;;;8.30;99.90;;;;;;5089680;27;20126;-82
2023/10/20 05:48:06;;;;;;;23.30;13.73;;;8.30;99.90;;;;;;5093428;27;20683;-84
2023/10/20 05:50:38;;;;;;;22.10;13.45;;;8.30;99.90;;;;;;5105750;27;20035;-83
2023/10/20 05:53:05;;;;;;;22.38;12.43;;;8.30;99.90;;;;;;5119234;27;20467;-82
2023/10/20 05:55:32;;;;;;;19.50;11.30;;;8.30;99.90;;;;;;5121693;27;20023;-81
2023/10/20 05:57:57;;;;;;;17.50;10.63;;;8.30;99.90;;;;;;5118165;27;20023;-83
2023/10/20 06:00:23;;;;;;;17.67;9.48;;;8.30;99.90;;;;;;5121171;27;20030;-82
2023/10/20 06:02:49;;;;;;;14.25;8.70;;;8.30;99.90;;;;;;5121592;27;20023;-83
2023/10/20 06:05:14;;;;;;;17.65;9.20;;;8.30;99.90;;;;;;5124103;27;20027;-82
2023/10/20 06:07:41;;;;;;;13.40;8.23;;;8.30;99.90;;;;;;5124702;27;20026;-81
2023/10/20 06:10:08;;;;;;;15.73;9.50;;;8.30;99.90;;;;;;5121787;27;20371;-82
2023/10/20 06:12:34;;;;;;;14.18;8.63;;;8.30;99.90;;;;;;5113300;27;20096;-82
2023/10/20 06:14:59;;;;;;;13.55;8.77;;;8.30;99.90;;;;;;5101934;27;20059;-81
2023/10/20 06:17:25;;;;;;;15.23;7.82;;;8.30;99.90;;;;;;5117944;27;20023;-82
2023/10/20 06:19:51;;;;;;;15.50;9.27;;;8.30;99.90;;;;;;5110039;27;20034;-82
2023/10/20 06:22:16;;;;;;;14.90;9.30;;;8.20;99.90;;;;;;5120664;27;20532;-82
2023/10/20 06:24:43;;;;;;;13.65;8.85;;;8.20;99.90;;;;;;5118791;27;20081;-83
2023/10/20 06:27:11;;;;;;;12.35;8.07;;;8.20;99.90;;;;;;5119478;27;20030;-82
2023/10/20 06:35:22;;;;;;;14.73;8.20;;;8.20;99.90;;;;;;5087033;27;20432;-82
2023/10/20 06:37:56;;;;;;;16.35;7.35;;;8.20;99.90;;;;;;5117174;27;20038;-81
2023/10/20 06:40:21;;;;;;;12.25;7.72;;;8.20;99.90;;;;;;5125382;27;20027;-81
2023/10/20 06:42:47;;;;;;;13.90;8.10;;;8.20;99.90;;;;;;5128543;27;20091;-82
2023/10/20 06:45:16;;;;;;;14.15;7.70;;;8.10;99.90;;;;;;5114577;27;20027;-81
2023/10/20 06:47:42;;;;;;;16.83;7.85;;;8.10;99.90;;;;;;5123291;27;20118;-81
2023/10/20 06:50:10;;;;;;;14.63;8.95;;;8.10;99.90;;;;;;5113308;27;20092;-86
2023/10/20 06:52:36;;;;;;;15.00;8.60;;;8.10;99.90;;;;;;5107446;27;20035;-82
2023/10/20 06:55:06;;;;;;;12.38;7.05;;;8.10;99.90;;;;;;5112487;27;20015;-82
2023/10/20 06:57:31;;;;;;;11.30;7.38;;;8.10;99.90;;;;;;5110924;27;20015;-81
2023/10/20 06:59:57;;;;;;;11.88;7.45;;;8.10;99.90;;;;;;5115775;27;20023;-81
2023/10/20 07:02:23;;;;;;;12.10;7.15;;;8.10;99.90;;;;;;5100872;27;20059;-81
2023/10/20 07:04:48;;;;;;;12.38;7.05;;;8.00;99.90;;;;;;5092357;28;20023;-81
2023/10/20 07:07:15;;;;;;;12.70;6.85;;;8.00;99.90;;;;;;5115372;27;20360;-81
2023/10/20 07:09:41;;;;;;;14.75;8.00;;;8.00;99.90;;;;;;5112774;27;20039;-81
2023/10/20 07:12:07;;;;;;;14.18;7.88;;;8.00;99.90;;;;;;5106176;27;20076;-81
2023/10/20 07:14:34;;;;;;;18.20;9.00;;;8.00;99.90;;;;;;5101780;28;20068;-81
2023/10/20 07:17:03;;;;;;;16.08;8.80;;;8.00;99.90;;;;;;5112147;27;20019;-81
2023/10/20 07:19:33;;;;;;;13.75;8.48;;;8.00;99.90;;;;;;5107153;27;20341;-81
2023/10/20 07:22:05;;;;;;;13.63;8.25;;;8.00;99.90;;;;;;5104836;27;20076;-81
2023/10/20 07:24:31;;;;;;;12.52;7.45;;;8.00;99.90;;;;;;5109767;27;20027;-81
2023/10/20 07:26:58;;;;;;;12.48;7.95;;;8.00;99.90;;;;;;5100136;28;20372;-81
2023/10/20 07:29:24;;;;;;;12.18;7.57;;;8.00;99.90;;;;;;5093798;27;20036;-81
2023/10/20 07:31:49;;;;;;;15.38;8.27;;;8.00;99.90;;;;;;5100949;27;20022;-81
2023/10/20 07:34:15;;;;;;;15.85;8.63;;;8.00;99.90;;;;;;5120134;27;20376;-82
2023/10/20 07:36:42;;;;;;;17.80;8.45;;;8.00;99.90;;;;;;5105712;27;20020;-81
2023/10/20 07:39:09;;;;;;;15.82;8.98;;;8.00;99.90;;;;;;5100782;27;20160;-81
2023/10/20 07:41:36;;;;;;;14.65;9.23;;;8.00;99.90;;;;;;5096876;27;20117;-81
2023/10/20 07:44:02;;;;;;;20.67;10.48;;;7.90;99.90;;;;;;5095110;27;20379;-82
2023/10/20 07:46:28;;;;;;;20.95;10.80;;;7.90;99.90;;;;;;5117508;27;20023;-81
2023/10/20 07:48:54;;;;;;;18.65;11.10;;;8.00;99.90;;;;;;5115462;27;20114;-82
2023/10/20 07:51:22;;;;;;;19.50;12.00;;;7.90;99.90;;;;;;5101265;28;20564;-83
2023/10/20 07:53:48;;;;;;;21.73;12.25;;;8.00;99.90;;;;;;5095947;27;20032;-82
2023/10/20 07:56:14;;;;;;;21.80;12.25;;;8.00;99.90;;;;;;5106987;27;20505;-81
2023/10/20 07:58:39;;;;;;;23.58;13.23;;;7.90;99.90;;;;;;5114115;27;20023;-82
2023/10/20 08:01:06;;;;;;;25.35;13.80;;;7.90;99.90;;;;;;5115189;27;20029;-83
2023/10/20 08:03:33;;;;;;;28.02;15.00;;;8.00;99.90;;;;;;5102088;28;20534;-82
2023/10/20 08:06:05;;;;;;;26.98;15.43;;;7.90;99.90;;;;;;5106595;27;20367;-82
2023/10/20 08:08:32;;;;;;;30.60;18.05;;;7.90;99.90;;;;;;5106710;28;20054;-84
2023/10/20 08:10:59;;;;;;;29.75;17.35;;;7.90;99.90;;;;;;5100329;27;20037;-83
2023/10/20 08:13:25;;;;;;;38.85;21.55;;;8.00;99.90;;;;;;5119987;27;20023;-82
2023/10/20 08:15:50;;;;;;;44.10;24.20;;;7.90;99.90;;;;;;5114341;27;20055;-82
2023/10/20 08:18:16;;;;;;;37.90;22.75;;;7.90;99.90;;;;;;5107317;27;20027;-82
2023/10/20 08:20:42;;;;;;;41.08;23.13;;;7.90;99.90;;;;;;5107183;27;20095;-90
2023/10/20 08:23:08;;;;;;;42.38;23.45;;;7.90;99.90;;;;;;5103094;28;20030;-83
2023/10/20 08:25:37;;;;;;;45.03;24.30;;;7.90;99.90;;;;;;5122548;27;20031;-87
2023/10/20 08:28:04;;;;;;;47.22;24.45;;;7.90;99.90;;;;;;5104503;28;20098;-82
2023/10/20 08:30:30;;;;;;;42.35;22.10;;;7.90;99.90;;;;;;5096149;28;20387;-83
2023/10/20 08:32:56;;;;;;;43.47;23.48;;;7.90;99.90;;;;;;5094393;27;20047;-84
2023/10/20 08:35:22;;;;;;;42.30;24.00;;;7.90;99.90;;;;;;5113548;27;20417;-83
2023/10/20 08:37:48;;;;;;;45.60;25.35;;;7.90;99.90;;;;;;5102645;28;20031;-84
2023/10/20 08:40:13;;;;;;;50.05;24.38;;;7.90;99.90;;;;;;5110468;28;20209;-83
2023/10/20 08:42:39;;;;;;;43.30;25.00;;;7.90;99.90;;;;;;5100035;28;20027;-83
2023/10/20 08:45:13;;;;;;;84.82;26.70;;;7.90;99.90;;;;;;5102834;28;20068;-84
2023/10/20 08:47:41;;;;;;;74.70;25.83;;;7.90;99.90;;;;;;5091063;28;20043;-85
2023/10/20 08:50:09;;;;;;;50.47;27.60;;;7.90;99.90;;;;;;5112816;28;20043;-84
2023/10/20 08:52:35;;;;;;;46.22;28.33;;;7.90;99.90;;;;;;5098106;28;20084;-84
2023/10/20 08:55:01;;;;;;;48.05;28.35;;;7.90;99.90;;;;;;5106141;28;20551;-86
2023/10/20 08:57:27;;;;;;;47.28;28.05;;;7.90;99.90;;;;;;5099207;28;20028;-85
2023/10/20 08:59:54;;;;;;;53.33;29.83;;;7.90;99.90;;;;;;5108723;28;20093;-83
2023/10/20 09:02:20;;;;;;;45.58;28.15;;;7.90;99.90;;;;;;5101952;27;20464;-83
2023/10/20 09:04:51;;;;;;;127.00;29.77;;;7.80;99.90;;;;;;5104462;27;20024;-84
2023/10/20 09:07:17;;;;;;;47.50;29.38;;;7.90;99.90;;;;;;5110220;27;20023;-85
2023/10/20 09:09:45;;;;;;;101.90;31.45;;;7.90;99.90;;;;;;5112200;27;20028;-85
2023/10/20 09:12:13;;;;;;;59.20;29.35;;;7.90;99.90;;;;;;5105600;27;20070;-90
2023/10/20 09:14:39;;;;;;;52.53;30.48;;;7.90;99.90;;;;;;5104514;27;20110;-85
2023/10/20 09:17:05;;;;;;;235.32;31.60;;;7.90;99.90;;;;;;5109604;27;20023;-83
2023/10/20 09:19:31;;;;;;;50.65;30.27;;;7.90;99.90;;;;;;5105292;27;20027;-84
2023/10/20 09:21:57;;;;;;;142.77;29.60;;;7.90;99.90;;;;;;5110442;27;20028;-83
2023/10/20 09:24:31;;;;;;;61.95;31.95;;;7.80;99.90;;;;;;5107626;27;20484;-85
2023/10/20 09:26:57;;;;;;;57.90;31.42;;;7.90;99.90;;;;;;5109398;27;20024;-86
2023/10/20 09:29:24;;;;;;;66.75;30.85;;;7.90;99.90;;;;;;5109462;27;20052;-84
2023/10/20 09:31:50;;;;;;;115.85;33.15;;;7.90;99.90;;;;;;5109354;27;20093;-87
2023/10/20 09:34:15;;;;;;;80.68;31.13;;;7.90;99.90;;;;;;5111622;27;20048;-82
2023/10/20 09:36:45;;;;;;;51.45;30.55;;;7.90;99.90;;;;;;5108612;27;20032;-83
2023/10/20 09:39:16;;;;;;;89.85;30.92;;;7.80;99.90;;;;;;5109686;27;20471;-84
2023/10/20 09:41:50;;;;;;;56.30;29.38;;;7.90;99.90;;;;;;5098991;27;20438;-83
2023/10/20 09:44:24;;;;;;;49.40;29.35;;;7.90;99.90;;;;;;5101836;28;20038;-84
2023/10/20 09:47:06;;;;;;;48.42;27.23;;;7.90;99.90;;;;;;5101504;27;20032;-83
2023/10/20 09:49:35;;;;;;;104.28;30.35;;;7.90;99.90;;;;;;5098643;27;20043;-84
2023/10/20 09:52:01;;;;;;;71.78;31.08;;;7.90;99.90;;;;;;5096834;27;20442;-83
2023/10/20 09:54:30;;;;;;;51.67;29.10;;;7.90;99.90;;;;;;5110109;27;20027;-82
2023/10/20 09:56:57;;;;;;;57.72;30.15;;;7.90;99.90;;;;;;5104322;27;20027;-83
2023/10/20 09:59:25;;;;;;;48.40;28.85;;;8.00;99.90;;;;;;5114440;27;20032;-83
2023/10/20 10:01:59;;;;;;;50.35;28.80;;;8.00;99.90;;;;;;5106692;27;20471;-83
2023/10/20 10:04:33;;;;;;;46.03;27.30;;;8.00;99.90;;;;;;5107561;27;20525;-83
2023/10/20 10:07:05;;;;;;;44.90;26.48;;;8.00;99.90;;;;;;5104085;27;20042;-82
2023/10/20 10:09:38;;;;;;;45.75;26.38;;;8.00;99.90;;;;;;5104189;27;20040;-85
2023/10/20 10:12:14;;;;;;;46.10;26.70;;;8.00;99.90;;;;;;5120545;27;20023;-83
2023/10/20 10:14:40;;;;;;;49.75;26.65;;;8.00;99.90;;;;;;5102564;27;20288;-82
2023/10/20 10:17:11;;;;;;;45.95;25.48;;;8.00;99.90;;;;;;5101570;27;20028;-83
2023/10/20 10:19:51;;;;;;;42.28;26.20;;;8.00;99.90;;;;;;5101241;27;20019;-83
2023/10/20 10:22:17;;;;;;;45.90;26.23;;;8.00;99.90;;;;;;5101114;27;20020;-84
2023/10/20 10:24:51;;;;;;;46.78;24.85;;;8.00;99.90;;;;;;5092084;27;20451;-84
2023/10/20 10:27:19;;;;;;;51.40;25.60;;;8.00;99.90;;;;;;5111020;27;20030;-83
2023/10/20 10:30:11;;;;;;;39.58;23.20;;;8.00;99.90;;;;;;5100398;27;20051;-83
2023/10/20 10:32:51;;;;;;;42.05;22.90;;;8.00;99.90;;;;;;5099011;27;20444;-84
2023/10/20 10:35:17;;;;;;;42.33;23.13;;;8.00;99.90;;;;;;5120631;27;20115;-83
2023/10/20 10:37:44;;;;;;;38.58;23.67;;;8.00;99.90;;;;;;5111922;27;20169;-83
2023/10/20 10:40:15;;;;;;;42.80;22.20;;;8.10;99.90;;;;;;5103343;27;20387;-84
2023/10/20 10:42:46;;;;;;;41.70;22.58;;;8.10;99.90;;;;;;5109427;27;20039;-83
2023/10/20 10:45:27;;;;;;;42.95;23.80;;;8.10;99.90;;;;;;5111900;27;20038;-84
2023/10/20 10:48:11;;;;;;;40.40;23.20;;;8.10;99.90;;;;;;5117504;27;20114;-84
2023/10/20 10:50:41;;;;;;;34.47;20.75;;;8.10;99.90;;;;;;5113048;27;20065;-84
2023/10/20 10:53:10;;;;;;;39.13;20.83;;;8.20;99.90;;;;;;5112250;27;20039;-84
2023/10/20 10:55:36;;;;;;;33.50;18.92;;;8.10;99.90;;;;;;5112651;27;20059;-83
2023/10/20 10:58:12;;;;;;;39.72;21.25;;;8.20;99.90;;;;;;5096930;27;20024;-82
2023/10/20 11:00:39;;;;;;;34.85;18.52;;;8.10;99.90;;;;;;5094228;27;20024;-84
2023/10/20 11:03:06;;;;;;;29.63;17.27;;;8.10;99.90;;;;;;5117262;27;20118;-82
2023/10/20 11:05:35;;;;;;;33.33;18.98;;;8.20;99.90;;;;;;5109370;27;20027;-83
2023/10/20 11:08:05;;;;;;;40.22;21.73;;;8.10;99.90;;;;;;5102687;27;20028;-84
2023/10/20 11:10:34;;;;;;;33.90;19.58;;;8.10;99.90;;;;;;5099920;27;20028;-89
2023/10/20 11:13:04;;;;;;;30.13;16.88;;;8.10;99.90;;;;;;5107969;27;20023;-84
2023/10/20 11:15:30;;;;;;;25.25;14.40;;;8.10;99.90;;;;;;5107127;27;20034;-83
2023/10/20 11:17:57;;;;;;;28.42;16.05;;;8.10;99.90;;;;;;5099810;28;20080;-83
2023/10/20 11:20:23;;;;;;;33.03;16.73;;;8.10;99.90;;;;;;5108655;27;20019;-82
2023/10/20 11:22:56;;;;;;;34.17;16.95;;;8.10;99.90;;;;;;5102005;27;20027;-84
2023/10/20 11:25:23;;;;;;;32.63;16.38;;;8.00;99.90;;;;;;5106835;27;20122;-83
2023/10/20 11:27:55;;;;;;;27.20;14.85;;;8.10;99.90;;;;;;5103994;27;20124;-83
2023/10/20 11:30:31;;;;;;;25.42;13.90;;;8.10;99.90;;;;;;5109467;27;20028;-84
2023/10/20 11:32:57;;;;;;;26.20;15.07;;;8.10;99.90;;;;;;5089875;27;20380;-83
2023/10/20 11:35:24;;;;;;;26.35;15.15;;;8.10;99.90;;;;;;5108797;27;20028;-83
2023/10/20 11:37:51;;;;;;;23.17;13.65;;;8.10;99.90;;;;;;5105790;27;20027;-83
2023/10/20 11:40:18;;;;;;;23.50;14.30;;;8.10;99.90;;;;;;5107313;27;20527;-83
2023/10/20 11:42:44;;;;;;;22.65;14.55;;;8.10;99.90;;;;;;5101229;27;20028;-85
2023/10/20 11:45:10;;;;;;;23.17;13.57;;;8.10;99.90;;;;;;5078112;28;20076;-85
2023/10/20 11:47:37;;;;;;;22.05;12.95;;;8.10;99.90;;;;;;5098617;27;20488;-82
2023/10/20 11:50:04;;;;;;;28.05;12.23;;;8.10;99.90;;;;;;5108232;27;20036;-87
2023/10/20 11:52:29;;;;;;;17.63;11.45;;;8.10;99.90;;;;;;5098833;27;20076;-84
2023/10/20 11:54:55;;;;;;;16.90;11.02;;;8.00;99.90;;;;;;5107998;27;20480;-83
2023/10/20 11:57:21;;;;;;;15.63;9.82;;;8.00;99.90;;;;;;5121605;27;20018;-86
2023/10/20 11:59:47;;;;;;;19.88;11.57;;;8.00;99.90;;;;;;5108675;27;20117;-87
2023/10/20 12:02:12;;;;;;;17.10;11.38;;;8.00;99.90;;;;;;5108805;27;20091;-82
2023/10/20 12:04:38;;;;;;;17.67;11.70;;;8.00;99.90;;;;;;5112711;27;20459;-84
2023/10/20 12:07:03;;;;;;;19.52;12.73;;;8.00;99.90;;;;;;5112738;27;20028;-85
2023/10/20 12:09:29;;;;;;;19.83;11.05;;;8.00;99.90;;;;;;5113329;27;20027;-85
2023/10/20 12:11:55;;;;;;;23.02;12.25;;;8.00;99.90;;;;;;5110814;27;20505;-86
2023/10/20 12:14:21;;;;;;;18.45;10.73;;;8.00;99.90;;;;;;5116090;27;20047;-83
2023/10/20 12:16:46;;;;;;;17.98;11.10;;;8.00;99.90;;;;;;5113732;27;20410;-86
2023/10/20 12:19:12;;;;;;;16.23;10.35;;;8.00;99.90;;;;;;5115591;27;20128;-84
2023/10/20 12:21:38;;;;;;;17.77;12.38;;;8.00;99.90;;;;;;5113200;27;20030;-86
2023/10/20 12:24:05;;;;;;;21.23;12.55;;;8.00;99.90;;;;;;5116402;27;20144;-84
2023/10/20 12:26:30;;;;;;;21.65;13.10;;;8.00;99.90;;;;;;5114549;27;20038;-85
2023/10/20 12:28:56;;;;;;;24.33;13.48;;;8.00;99.90;;;;;;5108787;27;20044;-84
2023/10/20 12:31:26;;;;;;;13.18;9.95;;;7.90;99.90;;;;;;5109055;27;20111;-85
2023/10/20 12:33:51;;;;;;;17.83;10.43;;;7.90;99.90;;;;;;5104181;28;20044;-84
2023/10/20 12:36:17;;;;;;;17.25;12.23;;;8.00;99.90;;;;;;5095639;28;20012;-86
2023/10/20 12:38:45;;;;;;;17.88;12.02;;;8.00;99.90;;;;;;5114643;27;20035;-84
2023/10/20 12:41:13;;;;;;;18.17;11.18;;;8.00;99.90;;;;;;5111996;28;20024;-84
2023/10/20 12:43:40;;;;;;;23.90;12.07;;;7.90;99.90;;;;;;5108973;28;20023;-88
2023/10/20 12:46:06;;;;;;;16.48;10.90;;;7.90;99.90;;;;;;5090456;28;20027;-86
2023/10/20 12:48:31;;;;;;;13.73;10.23;;;7.90;99.90;;;;;;5113746;28;20517;-85
2023/10/20 12:50:57;;;;;;;18.52;12.50;;;7.90;99.90;;;;;;5100575;28;20107;-86
2023/10/20 12:53:23;;;;;;;17.10;11.68;;;7.90;99.90;;;;;;5103370;28;20066;-84
2023/10/20 12:55:52;;;;;;;18.02;12.40;;;7.90;99.90;;;;;;5109401;28;20034;-87
2023/10/20 12:58:18;;;;;;;20.05;12.93;;;7.90;99.90;;;;;;5106390;28;20102;-86
2023/10/20 13:00:45;;;;;;;27.13;13.82;;;7.90;99.90;;;;;;5092772;28;20019;-85
2023/10/20 13:03:10;;;;;;;16.33;12.52;;;7.90;99.90;;;;;;5100146;28;20077;-86
2023/10/20 13:05:36;;;;;;;20.20;12.32;;;7.90;99.90;;;;;;5096034;28;20031;-83
2023/10/20 13:08:01;;;;;;;20.85;11.70;;;7.80;99.90;;;;;;5103916;28;20471;-86
2023/10/20 13:10:28;;;;;;;20.35;13.07;;;7.90;99.90;;;;;;5103653;28;20078;-87
2023/10/20 13:12:54;;;;;;;17.40;12.25;;;7.90;99.90;;;;;;5092639;28;20024;-85